sensor_id;sensor_type;location;lat;lon;timestamp;pressure;altitude;pressure_sealevel;temperature;humidity
13954;BME280;7049;49.444;8.522;2022-10-16T00:05:00;77075.31;;;-3.47;100.00
13954;BME280;7049;49.444;8.522;2022-10-16T00:10:04;77073.22;;;-3.47;100.00
13954;BME280;7049;49.444;8.522;2022-10-16T00:15:07;77071.13;;;-3.47;100.00
13954;BME280;7049;49.444;8.522;2022-10-16T00:20:09;77079.50;;;-3.47;100.00
13954;BME280;7049;49.444;8.522;2022-10-16T00:25:11;77073.22;;;-3.47;100.00
13954;BME280;7049;49.444;8.522;2022-10-16T00:30:13;77085.78;;;-3.47;100.00
13954;BME280;7049;49.444;8.522;2022-10-16T00:35:14;77089.97;;;-3.47;100.00
13954;BME280;7049;49.444;8.522;2022-10-16T00:40:17;77092.06;;;-3.47;100.00
13954;BME280;7049;49.444;8.522;2022-10-16T00:45:19;77106.72;;;-3.47;100.00
13954;BME280;7049;49.444;8.522;2022-10-16T00:50:24;77102.53;;;-3.47;100.00
13954;BME280;7049;49.444;8.522;2022-10-16T00:55:28;77106.72;;;-3.47;100.00
13954;BME280;7049;49.444;8.522;2022-10-16T01:00:30;77087.88;;;-3.47;100.00
13954;BME280;7049;49.444;8.522;2022-10-16T01:05:36;77089.97;;;-3.47;100.00
13954;BME280;7049;49.444;8.522;2022-10-16T01:10:51;77083.69;;;-3.47;100.00
13954;BME280;7049;49.444;8.522;2022-10-16T01:15:58;77098.34;;;-3.47;100.00
13954;BME280;7049;49.444;8.522;2022-10-16T01:21:03;77102.53;;;-3.47;100.00
13954;BME280;7049;49.444;8.522;2022-10-16T01:26:14;77115.06;;;-3.47;100.00
13954;BME280;7049;49.444;8.522;2022-10-16T01:31:23;77104.63;;;-3.47;100.00
13954;BME280;7049;49.444;8.522;2022-10-16T01:36:29;77092.06;;;-3.47;100.00
13954;BME280;7049;49.444;8.522;2022-10-16T01:41:33;77115.06;;;-3.47;100.00
13954;BME280;7049;49.444;8.522;2022-10-16T01:46:40;77123.44;;;-3.47;100.00
13954;BME280;7049;49.444;8.522;2022-10-16T01:51:44;77136.00;;;-3.47;100.00
13954;BME280;7049;49.444;8.522;2022-10-16T01:56:48;77148.53;;;-3.47;100.00
13954;BME280;7049;49.444;8.522;2022-10-16T02:01:57;77133.91;;;-3.47;100.00
13954;BME280;7049;49.444;8.522;2022-10-16T02:07:00;77123.44;;;-3.47;100.00
13954;BME280;7049;49.444;8.522;2022-10-16T02:12:06;77123.44;;;-3.47;100.00
13954;BME280;7049;49.444;8.522;2022-10-16T02:17:12;77138.09;;;-3.47;100.00
13954;BME280;7049;49.444;8.522;2022-10-16T02:22:17;77140.19;;;-3.47;100.00
13954;BME280;7049;49.444;8.522;2022-10-16T02:27:24;77136.00;;;-3.47;100.00
13954;BME280;7049;49.444;8.522;2022-10-16T02:32:31;77136.00;;;-3.47;100.00
13954;BME280;7049;49.444;8.522;2022-10-16T02:37:34;77138.09;;;-3.47;100.00
13954;BME280;7049;49.444;8.522;2022-10-16T02:42:38;77133.91;;;-3.47;100.00
13954;BME280;7049;49.444;8.522;2022-10-16T02:47:42;77127.63;;;-3.47;100.00
13954;BME280;7049;49.444;8.522;2022-10-16T02:52:43;77119.25;;;-3.47;100.00
13954;BME280;7049;49.444;8.522;2022-10-16T02:57:45;77098.34;;;-3.47;100.00
13954;BME280;7049;49.444;8.522;2022-10-16T03:02:47;77131.81;;;-3.47;100.00
13954;BME280;7049;49.444;8.522;2022-10-16T03:07:49;77146.44;;;-3.47;100.00
13954;BME280;7049;49.444;8.522;2022-10-16T03:12:50;77115.06;;;-3.47;100.00
13954;BME280;7049;49.444;8.522;2022-10-16T03:17:53;77127.63;;;-3.47;100.00
13954;BME280;7049;49.444;8.522;2022-10-16T03:22:54;77096.25;;;-3.47;100.00
13954;BME280;7049;49.444;8.522;2022-10-16T03:27:56;77106.72;;;-3.47;100.00
13954;BME280;7049;49.444;8.522;2022-10-16T03:32:59;77106.72;;;-3.47;100.00
13954;BME280;7049;49.444;8.522;2022-10-16T03:38:00;77115.06;;;-3.47;100.00
13954;BME280;7049;49.444;8.522;2022-10-16T03:43:05;77112.97;;;-3.47;100.00
13954;BME280;7049;49.444;8.522;2022-10-16T03:48:08;77136.00;;;-3.47;100.00
13954;BME280;7049;49.444;8.522;2022-10-16T03:53:10;77161.09;;;-3.47;100.00
13954;BME280;7049;49.444;8.522;2022-10-16T03:58:11;77142.28;;;-3.47;100.00
13954;BME280;7049;49.444;8.522;2022-10-16T04:03:14;77152.72;;;-3.47;100.00
13954;BME280;7049;49.444;8.522;2022-10-16T04:08:17;77152.72;;;-3.47;100.00
13954;BME280;7049;49.444;8.522;2022-10-16T04:13:19;77156.91;;;-3.47;100.00
13954;BME280;7049;49.444;8.522;2022-10-16T04:18:22;77165.28;;;-3.47;100.00
13954;BME280;7049;49.444;8.522;2022-10-16T04:23:23;77175.75;;;-3.47;100.00
13954;BME280;7049;49.444;8.522;2022-10-16T04:28:25;77186.19;;;-3.47;100.00
13954;BME280;7049;49.444;8.522;2022-10-16T04:33:28;77188.28;;;-3.47;100.00
13954;BME280;7049;49.444;8.522;2022-10-16T04:38:29;77182.03;;;-3.47;100.00
13954;BME280;7049;49.444;8.522;2022-10-16T04:43:31;77190.38;;;-3.47;100.00
13954;BME280;7049;49.444;8.522;2022-10-16T04:48:34;77184.09;;;-3.47;100.00
13954;BME280;7049;49.444;8.522;2022-10-16T04:53:35;77184.09;;;-3.47;100.00
13954;BME280;7049;49.444;8.522;2022-10-16T04:58:37;77202.94;;;-3.47;100.00
13954;BME280;7049;49.444;8.522;2022-10-16T05:03:40;77179.94;;;-3.47;100.00
13954;BME280;7049;49.444;8.522;2022-10-16T05:08:41;77200.84;;;-3.47;100.00
13954;BME280;7049;49.444;8.522;2022-10-16T05:13:42;77194.56;;;-3.47;100.00
13954;BME280;7049;49.444;8.522;2022-10-16T05:18:45;77188.28;;;-3.47;100.00
13954;BME280;7049;49.444;8.522;2022-10-16T05:23:47;77177.84;;;-3.47;100.00
13954;BME280;7049;49.444;8.522;2022-10-16T05:28:49;77165.28;;;-3.47;100.00
13954;BME280;7049;49.444;8.522;2022-10-16T05:33:58;77188.28;;;-3.47;100.00
13954;BME280;7049;49.444;8.522;2022-10-16T05:38:59;77186.19;;;-3.47;100.00
13954;BME280;7049;49.444;8.522;2022-10-16T05:44:04;77186.19;;;-3.47;100.00
13954;BME280;7049;49.444;8.522;2022-10-16T05:49:07;77196.66;;;-3.47;100.00
13954;BME280;7049;49.444;8.522;2022-10-16T05:54:08;77219.69;;;-3.47;100.00
13954;BME280;7049;49.444;8.522;2022-10-16T05:59:10;77196.66;;;-3.47;100.00
13954;BME280;7049;49.444;8.522;2022-10-16T06:04:13;77190.38;;;-3.47;100.00
13954;BME280;7049;49.444;8.522;2022-10-16T06:09:14;77194.56;;;-3.47;100.00
13954;BME280;7049;49.444;8.522;2022-10-16T06:14:16;77209.22;;;-3.47;100.00
13954;BME280;7049;49.444;8.522;2022-10-16T06:19:18;77228.03;;;-3.47;100.00
13954;BME280;7049;49.444;8.522;2022-10-16T06:24:20;77232.22;;;-3.47;100.00
13954;BME280;7049;49.444;8.522;2022-10-16T06:29:22;77223.88;;;-3.47;100.00
13954;BME280;7049;49.444;8.522;2022-10-16T06:34:24;77230.13;;;-3.47;100.00
13954;BME280;7049;49.444;8.522;2022-10-16T06:39:26;77236.41;;;-3.47;100.00
13954;BME280;7049;49.444;8.522;2022-10-16T06:44:27;77248.97;;;-3.47;100.00
13954;BME280;7049;49.444;8.522;2022-10-16T06:49:30;77255.25;;;-3.47;100.00
13954;BME280;7049;49.444;8.522;2022-10-16T06:54:32;77246.88;;;-3.47;100.00
13954;BME280;7049;49.444;8.522;2022-10-16T06:59:33;77261.53;;;-3.47;100.00
13954;BME280;7049;49.444;8.522;2022-10-16T07:04:36;77259.44;;;-3.47;100.00
13954;BME280;7049;49.444;8.522;2022-10-16T07:09:38;77259.44;;;-3.47;100.00
13954;BME280;7049;49.444;8.522;2022-10-16T07:14:39;77271.97;;;-3.47;100.00
13954;BME280;7049;49.444;8.522;2022-10-16T07:19:42;77280.34;;;-3.47;100.00
13954;BME280;7049;49.444;8.522;2022-10-16T07:24:43;77278.25;;;-3.47;100.00
13954;BME280;7049;49.444;8.522;2022-10-16T07:29:46;77278.25;;;-3.47;100.00
13954;BME280;7049;49.444;8.522;2022-10-16T07:34:53;77263.63;;;-3.47;100.00
13954;BME280;7049;49.444;8.522;2022-10-16T07:39:56;77261.53;;;-3.47;100.00
13954;BME280;7049;49.444;8.522;2022-10-16T07:44:58;77263.63;;;-3.47;100.00
13954;BME280;7049;49.444;8.522;2022-10-16T07:50:03;77274.06;;;-3.47;100.00
13954;BME280;7049;49.444;8.522;2022-10-16T07:55:06;77269.88;;;-3.47;100.00
13954;BME280;7049;49.444;8.522;2022-10-16T08:00:09;77265.69;;;-3.47;100.00
13954;BME280;7049;49.444;8.522;2022-10-16T08:05:15;77242.69;;;-3.47;100.00
13954;BME280;7049;49.444;8.522;2022-10-16T08:10:18;77257.34;;;-3.47;100.00
13954;BME280;7049;49.444;8.522;2022-10-16T08:15:20;77248.97;;;-3.47;100.00
13954;BME280;7049;49.444;8.522;2022-10-16T08:20:23;77240.59;;;-3.47;100.00
13954;BME280;7049;49.444;8.522;2022-10-16T08:25:25;77240.59;;;-3.47;100.00
13954;BME280;7049;49.444;8.522;2022-10-16T08:30:27;77236.41;;;-3.47;100.00
13954;BME280;7049;49.444;8.522;2022-10-16T08:35:29;77246.88;;;-3.47;100.00
13954;BME280;7049;49.444;8.522;2022-10-16T08:40:33;77221.78;;;-3.47;100.00
13954;BME280;7049;49.444;8.522;2022-10-16T08:45:42;77219.69;;;-3.47;100.00
13954;BME280;7049;49.444;8.522;2022-10-16T08:50:47;77205.03;;;-3.47;100.00
13954;BME280;7049;49.444;8.522;2022-10-16T08:55:52;77257.34;;;-3.47;100.00
13954;BME280;7049;49.444;8.522;2022-10-16T09:00:56;77286.63;;;-3.47;100.00
13954;BME280;7049;49.444;8.522;2022-10-16T09:06:13;77240.59;;;-3.47;100.00
13954;BME280;7049;49.444;8.522;2022-10-16T09:11:29;77232.22;;;-3.47;100.00
13954;BME280;7049;49.444;8.522;2022-10-16T09:16:36;77205.03;;;-3.47;100.00
13954;BME280;7049;49.444;8.522;2022-10-16T09:21:43;77169.47;;;-3.47;100.00
13954;BME280;7049;49.444;8.522;2022-10-16T09:26:46;77121.34;;;-3.47;100.00
13954;BME280;7049;49.444;8.522;2022-10-16T09:31:47;77115.06;;;-3.47;98.26
13954;BME280;7049;49.444;8.522;2022-10-16T09:36:51;77077.41;;;-3.47;94.33
13954;BME280;7049;49.444;8.522;2022-10-16T09:41:53;77029.31;;;-3.47;93.35
13954;BME280;7049;49.444;8.522;2022-10-16T09:47:02;77000.00;;;-3.47;88.75
13954;BME280;7049;49.444;8.522;2022-10-16T09:52:09;77025.13;;;-3.47;89.85
13954;BME280;7049;49.444;8.522;2022-10-16T09:57:13;76991.66;;;-3.47;88.75
13954;BME280;7049;49.444;8.522;2022-10-16T10:02:16;76997.91;;;-3.47;88.43
13954;BME280;7049;49.444;8.522;2022-10-16T10:07:24;77033.47;;;-3.47;87.08
13954;BME280;7049;49.444;8.522;2022-10-16T10:12:27;77033.47;;;-3.47;89.70
13954;BME280;7049;49.444;8.522;2022-10-16T10:17:30;77018.84;;;-3.47;90.02
13954;BME280;7049;49.444;8.522;2022-10-16T10:22:41;77000.00;;;-3.47;88.06
13954;BME280;7049;49.444;8.522;2022-10-16T10:27:53;76981.19;;;-3.47;88.03
13954;BME280;7049;49.444;8.522;2022-10-16T10:33:12;76943.53;;;-3.47;85.92
13954;BME280;7049;49.444;8.522;2022-10-16T10:38:29;76868.22;;;-3.47;83.31
13954;BME280;7049;49.444;8.522;2022-10-16T10:43:45;76809.66;;;-3.47;80.03
13954;BME280;7049;49.444;8.522;2022-10-16T10:48:57;76767.81;;;-3.47;79.50
13954;BME280;7049;49.444;8.522;2022-10-16T10:54:14;76734.34;;;-3.47;76.92
13954;BME280;7049;49.444;8.522;2022-10-16T10:59:34;76688.31;;;-3.47;72.76
13954;BME280;7049;49.444;8.522;2022-10-16T11:04:56;76640.22;;;-3.47;72.42
13954;BME280;7049;49.444;8.522;2022-10-16T11:10:11;76621.38;;;-3.47;69.33
13954;BME280;7049;49.444;8.522;2022-10-16T11:15:17;76602.56;;;-3.47;69.61
13954;BME280;7049;49.444;8.522;2022-10-16T11:20:22;76621.38;;;-3.47;68.00
13954;BME280;7049;49.444;8.522;2022-10-16T11:25:29;76654.84;;;-3.47;68.92
13954;BME280;7049;49.444;8.522;2022-10-16T11:30:39;76623.47;;;-3.47;69.39
13954;BME280;7049;49.444;8.522;2022-10-16T11:35:44;76627.66;;;-3.47;70.15
13954;BME280;7049;49.444;8.522;2022-10-16T11:40:51;76596.28;;;-3.47;69.88
13954;BME280;7049;49.444;8.522;2022-10-16T11:45:55;76579.56;;;-3.47;67.60
13954;BME280;7049;49.444;8.522;2022-10-16T11:51:05;76606.75;;;-3.47;68.83
13954;BME280;7049;49.444;8.522;2022-10-16T11:56:13;76663.22;;;-3.47;71.00
13954;BME280;7049;49.444;8.522;2022-10-16T12:01:19;76663.22;;;-3.47;70.67
13954;BME280;7049;49.444;8.522;2022-10-16T12:06:30;76667.41;;;-3.47;72.84
13954;BME280;7049;49.444;8.522;2022-10-16T12:11:36;76675.78;;;-3.47;73.69
13954;BME280;7049;49.444;8.522;2022-10-16T12:16:39;76675.78;;;-3.47;73.35
13954;BME280;7049;49.444;8.522;2022-10-16T12:21:55;76686.22;;;-3.47;73.65
13954;BME280;7049;49.444;8.522;2022-10-16T12:26:58;76690.41;;;-3.47;75.13
13954;BME280;7049;49.444;8.522;2022-10-16T12:32:00;76690.41;;;-3.47;74.91
13954;BME280;7049;49.444;8.522;2022-10-16T12:37:13;76730.16;;;-3.47;72.41
13954;BME280;7049;49.444;8.522;2022-10-16T12:42:31;76725.97;;;-3.47;73.65
13954;BME280;7049;49.444;8.522;2022-10-16T12:47:46;76736.44;;;-3.47;74.50
13954;BME280;7049;49.444;8.522;2022-10-16T12:52:48;76715.50;;;-3.47;73.81
13954;BME280;7049;49.444;8.522;2022-10-16T12:58:09;76713.44;;;-3.47;75.43
13954;BME280;7049;49.444;8.522;2022-10-16T13:03:35;76700.88;;;-3.47;73.96
13954;BME280;7049;49.444;8.522;2022-10-16T13:09:02;76692.50;;;-3.47;72.86
13954;BME280;7049;49.444;8.522;2022-10-16T13:14:23;76702.97;;;-3.47;69.37
13954;BME280;7049;49.444;8.522;2022-10-16T13:19:36;76723.88;;;-3.47;67.95
13954;BME280;7049;49.444;8.522;2022-10-16T13:24:49;76734.34;;;-3.47;69.15
13954;BME280;7049;49.444;8.522;2022-10-16T13:30:01;76755.25;;;-3.47;69.84
13954;BME280;7049;49.444;8.522;2022-10-16T13:35:19;76757.34;;;-3.47;71.74
13954;BME280;7049;49.444;8.522;2022-10-16T13:40:23;76799.19;;;-3.47;74.17
13954;BME280;7049;49.444;8.522;2022-10-16T13:45:26;76797.09;;;-3.47;73.84
13954;BME280;7049;49.444;8.522;2022-10-16T13:50:27;76799.19;;;-3.47;75.30
13954;BME280;7049;49.444;8.522;2022-10-16T13:55:29;76815.94;;;-3.47;76.26
13954;BME280;7049;49.444;8.522;2022-10-16T14:00:33;76834.75;;;-3.47;77.63
13954;BME280;7049;49.444;8.522;2022-10-16T14:05:35;76832.66;;;-3.47;76.90
13954;BME280;7049;49.444;8.522;2022-10-16T14:10:37;76822.19;;;-3.47;76.00
13954;BME280;7049;49.444;8.522;2022-10-16T14:15:46;76824.28;;;-3.47;75.10
13954;BME280;7049;49.444;8.522;2022-10-16T14:20:49;76832.66;;;-3.47;74.13
13954;BME280;7049;49.444;8.522;2022-10-16T14:25:51;76857.75;;;-3.47;75.70
13954;BME280;7049;49.444;8.522;2022-10-16T14:30:56;76855.66;;;-3.47;75.17
13954;BME280;7049;49.444;8.522;2022-10-16T14:36:01;76874.50;;;-3.47;76.36
13954;BME280;7049;49.444;8.522;2022-10-16T14:41:04;76876.59;;;-3.47;77.52
13954;BME280;7049;49.444;8.522;2022-10-16T14:46:12;76889.13;;;-3.47;77.58
13954;BME280;7049;49.444;8.522;2022-10-16T14:51:15;76889.13;;;-3.47;78.08
13954;BME280;7049;49.444;8.522;2022-10-16T14:56:18;76893.31;;;-3.47;78.54
13954;BME280;7049;49.444;8.522;2022-10-16T15:01:22;76884.97;;;-3.47;78.10
13954;BME280;7049;49.444;8.522;2022-10-16T15:06:23;76887.06;;;-3.47;78.27
13954;BME280;7049;49.444;8.522;2022-10-16T15:11:25;76861.94;;;-3.47;77.17
13954;BME280;7049;49.444;8.522;2022-10-16T15:16:28;76861.94;;;-3.47;77.65
13954;BME280;7049;49.444;8.522;2022-10-16T15:21:31;76876.59;;;-3.47;78.22
13954;BME280;7049;49.444;8.522;2022-10-16T15:26:34;76880.78;;;-3.47;77.80
13954;BME280;7049;49.444;8.522;2022-10-16T15:31:38;76889.13;;;-3.47;77.27
13954;BME280;7049;49.444;8.522;2022-10-16T15:36:43;76897.50;;;-3.47;78.14
13954;BME280;7049;49.444;8.522;2022-10-16T15:41:46;76880.78;;;-3.47;76.69
13954;BME280;7049;49.444;8.522;2022-10-16T15:46:54;76734.34;;;-3.47;73.14
13954;BME280;7049;49.444;8.522;2022-10-16T15:51:57;76487.53;;;-3.47;64.50
13954;BME280;7049;49.444;8.522;2022-10-16T15:57:00;76523.06;;;-3.47;65.33
13954;BME280;7049;49.444;8.522;2022-10-16T16:02:04;76656.94;;;-3.47;70.91
13954;BME280;7049;49.444;8.522;2022-10-16T16:07:06;76740.63;;;-3.47;74.00
13954;BME280;7049;49.444;8.522;2022-10-16T16:12:09;76813.84;;;-3.47;77.45
13954;BME280;7049;49.444;8.522;2022-10-16T16:17:15;76870.31;;;-3.47;80.50
13954;BME280;7049;49.444;8.522;2022-10-16T16:22:18;76903.78;;;-3.47;82.22
13954;BME280;7049;49.444;8.522;2022-10-16T16:27:21;76943.53;;;-3.47;82.64
13954;BME280;7049;49.444;8.522;2022-10-16T16:32:29;76977.00;;;-3.47;84.37
13954;BME280;7049;49.444;8.522;2022-10-16T16:37:32;76983.28;;;-3.47;84.62
13954;BME280;7049;49.444;8.522;2022-10-16T16:42:35;77010.47;;;-3.47;85.65
13954;BME280;7049;49.444;8.522;2022-10-16T16:47:40;77041.84;;;-3.47;87.19
13954;BME280;7049;49.444;8.522;2022-10-16T16:52:42;77058.59;;;-3.47;87.59
13954;BME280;7049;49.444;8.522;2022-10-16T16:57:47;77075.31;;;-3.47;88.12
13954;BME280;7049;49.444;8.522;2022-10-16T17:02:52;77102.53;;;-3.47;88.72
13954;BME280;7049;49.444;8.522;2022-10-16T17:07:54;77119.25;;;-3.47;89.04
13954;BME280;7049;49.444;8.522;2022-10-16T17:12:57;77125.53;;;-3.47;89.08
13954;BME280;7049;49.444;8.522;2022-10-16T17:18:01;77142.28;;;-3.47;89.72
13954;BME280;7049;49.444;8.522;2022-10-16T17:23:03;77165.28;;;-3.47;90.13
13954;BME280;7049;49.444;8.522;2022-10-16T17:28:07;77169.47;;;-3.47;90.05
13954;BME280;7049;49.444;8.522;2022-10-16T17:33:13;77211.31;;;-3.47;91.24
13954;BME280;7049;49.444;8.522;2022-10-16T17:38:15;77219.69;;;-3.47;91.35
13954;BME280;7049;49.444;8.522;2022-10-16T17:43:19;77228.03;;;-3.47;91.17
13954;BME280;7049;49.444;8.522;2022-10-16T17:48:23;77236.41;;;-3.47;90.84
13954;BME280;7049;49.444;8.522;2022-10-16T17:53:26;77259.44;;;-3.47;91.09
13954;BME280;7049;49.444;8.522;2022-10-16T17:58:28;77253.16;;;-3.47;91.32
13954;BME280;7049;49.444;8.522;2022-10-16T18:03:32;77251.06;;;-3.47;90.57
13954;BME280;7049;49.444;8.522;2022-10-16T18:08:33;77274.06;;;-3.47;91.12
13954;BME280;7049;49.444;8.522;2022-10-16T18:13:35;77286.63;;;-3.47;91.08
13954;BME280;7049;49.444;8.522;2022-10-16T18:18:39;77299.19;;;-3.47;91.47
13954;BME280;7049;49.444;8.522;2022-10-16T18:23:41;77324.28;;;-3.47;91.86
13954;BME280;7049;49.444;8.522;2022-10-16T18:28:43;77324.28;;;-3.47;91.68
13954;BME280;7049;49.444;8.522;2022-10-16T18:33:46;77320.09;;;-3.47;91.60
13954;BME280;7049;49.444;8.522;2022-10-16T18:38:49;77328.47;;;-3.47;91.34
13954;BME280;7049;49.444;8.522;2022-10-16T18:43:51;77351.47;;;-3.47;91.85
13954;BME280;7049;49.444;8.522;2022-10-16T18:48:55;77345.22;;;-3.47;92.11
13954;BME280;7049;49.444;8.522;2022-10-16T18:53:59;77368.22;;;-3.47;92.60
13954;BME280;7049;49.444;8.522;2022-10-16T18:59:02;77378.69;;;-3.47;93.01
13954;BME280;7049;49.444;8.522;2022-10-16T19:04:08;77359.84;;;-3.47;92.06
13954;BME280;7049;49.444;8.522;2022-10-16T19:09:10;77387.06;;;-3.47;92.64
13954;BME280;7049;49.444;8.522;2022-10-16T19:14:13;77420.53;;;-3.47;93.73
13954;BME280;7049;49.444;8.522;2022-10-16T19:19:17;77424.72;;;-3.47;93.96
13954;BME280;7049;49.444;8.522;2022-10-16T19:24:18;77426.81;;;-3.47;93.52
13954;BME280;7049;49.444;8.522;2022-10-16T19:29:20;77445.63;;;-3.47;93.92
13954;BME280;7049;49.444;8.522;2022-10-16T19:34:23;77466.56;;;-3.47;94.58
13954;BME280;7049;49.444;8.522;2022-10-16T19:39:24;77466.56;;;-3.47;94.77
13954;BME280;7049;49.444;8.522;2022-10-16T19:44:26;77454.00;;;-3.47;94.04
13954;BME280;7049;49.444;8.522;2022-10-16T19:49:29;77500.03;;;-3.47;95.09
13954;BME280;7049;49.444;8.522;2022-10-16T19:54:30;77495.84;;;-3.47;94.92
13954;BME280;7049;49.444;8.522;2022-10-16T19:59:32;77497.94;;;-3.47;94.36
13954;BME280;7049;49.444;8.522;2022-10-16T20:04:35;77529.31;;;-3.47;95.19
13954;BME280;7049;49.444;8.522;2022-10-16T20:09:37;77539.78;;;-3.47;95.11
13954;BME280;7049;49.444;8.522;2022-10-16T20:14:38;77525.13;;;-3.47;94.58
13954;BME280;7049;49.444;8.522;2022-10-16T20:19:41;77546.06;;;-3.47;95.04
13954;BME280;7049;49.444;8.522;2022-10-16T20:24:42;77560.72;;;-3.47;95.72
13954;BME280;7049;49.444;8.522;2022-10-16T20:29:44;77558.63;;;-3.47;95.49
13954;BME280;7049;49.444;8.522;2022-10-16T20:34:46;77577.44;;;-3.47;95.88
13954;BME280;7049;49.444;8.522;2022-10-16T20:39:48;77566.97;;;-3.47;94.90
13954;BME280;7049;49.444;8.522;2022-10-16T20:44:50;77594.19;;;-3.47;95.52
13954;BME280;7049;49.444;8.522;2022-10-16T20:49:53;77598.38;;;-3.47;96.01
13954;BME280;7049;49.444;8.522;2022-10-16T20:54:54;77596.28;;;-3.47;95.99
13954;BME280;7049;49.444;8.522;2022-10-16T20:59:56;77608.84;;;-3.47;96.11
13954;BME280;7049;49.444;8.522;2022-10-16T21:05:02;77627.66;;;-3.47;96.26
13954;BME280;7049;49.444;8.522;2022-10-16T21:10:05;77602.56;;;-3.47;95.67
13954;BME280;7049;49.444;8.522;2022-10-16T21:15:07;77621.38;;;-3.47;96.07
13954;BME280;7049;49.444;8.522;2022-10-16T21:20:10;77638.13;;;-3.47;96.09
13954;BME280;7049;49.444;8.522;2022-10-16T21:25:12;77629.75;;;-3.47;95.66
13954;BME280;7049;49.444;8.522;2022-10-16T21:30:13;77621.38;;;-3.47;94.96
13954;BME280;7049;49.444;8.522;2022-10-16T21:35:16;77650.69;;;-3.47;96.03
13954;BME280;7049;49.444;8.522;2022-10-16T21:40:18;77642.31;;;-3.47;95.73
13954;BME280;7049;49.444;8.522;2022-10-16T21:45:19;77656.94;;;-3.47;96.18
13954;BME280;7049;49.444;8.522;2022-10-16T21:50:22;77656.94;;;-3.47;96.39
13954;BME280;7049;49.444;8.522;2022-10-16T21:55:24;77667.41;;;-3.47;96.13
13954;BME280;7049;49.444;8.522;2022-10-16T22:00:25;77675.78;;;-3.47;96.46
13954;BME280;7049;49.444;8.522;2022-10-16T22:05:28;77682.06;;;-3.47;96.42
13954;BME280;7049;49.444;8.522;2022-10-16T22:10:30;77692.53;;;-3.47;96.62
13954;BME280;7049;49.444;8.522;2022-10-16T22:15:31;77679.97;;;-3.47;96.47
13954;BME280;7049;49.444;8.522;2022-10-16T22:20:34;77696.72;;;-3.47;96.01
13954;BME280;7049;49.444;8.522;2022-10-16T22:25:35;77700.91;;;-3.47;96.20
13954;BME280;7049;49.444;8.522;2022-10-16T22:30:38;77732.28;;;-3.47;96.75
13954;BME280;7049;49.444;8.522;2022-10-16T22:35:41;77713.44;;;-3.47;96.05
13954;BME280;7049;49.444;8.522;2022-10-16T22:40:43;77721.81;;;-3.47;95.29
13954;BME280;7049;49.444;8.522;2022-10-16T22:45:44;77709.25;;;-3.47;94.93
13954;BME280;7049;49.444;8.522;2022-10-16T22:50:48;77738.56;;;-3.47;95.31
13954;BME280;7049;49.444;8.522;2022-10-16T22:55:49;77759.47;;;-3.47;95.66
13954;BME280;7049;49.444;8.522;2022-10-16T23:00:51;77761.56;;;-3.47;96.05
13954;BME280;7049;49.444;8.522;2022-10-16T23:05:53;77753.22;;;-3.47;95.48
13954;BME280;7049;49.444;8.522;2022-10-16T23:10:55;77742.75;;;-3.47;95.22
13954;BME280;7049;49.444;8.522;2022-10-16T23:16:02;77767.84;;;-3.47;95.83
13954;BME280;7049;49.444;8.522;2022-10-16T23:21:06;77767.84;;;-3.47;96.48
13954;BME280;7049;49.444;8.522;2022-10-16T23:26:09;77782.50;;;-3.47;96.24
13954;BME280;7049;49.444;8.522;2022-10-16T23:31:12;77788.78;;;-3.47;96.42
13954;BME280;7049;49.444;8.522;2022-10-16T23:36:16;77818.06;;;-3.47;96.91
13954;BME280;7049;49.444;8.522;2022-10-16T23:41:18;77824.34;;;-3.47;96.98
13954;BME280;7049;49.444;8.522;2022-10-16T23:46:20;77809.69;;;-3.47;96.16
13954;BME280;7049;49.444;8.522;2022-10-16T23:51:22;77855.75;;;-3.47;97.42
13954;BME280;7049;49.444;8.522;2022-10-16T23:56:24;77843.19;;;-3.47;97.12
